Airfield :
LOGIN :

Register | Disclaimer

   EN    FR    IT 

 










Legend :    VFR   Marginal VFR   IFR   Intensive IFR   Very Intensive IFR
Visi :
Ceiling :
>= 8 km
>= 3000ft
5 to 8 km
1000 to 3000 ft
1500m to 5 km
500 to 1000 ft
800 to 1500m
200 to 500 ft
< 800m
< 200 ft
Symbols :   Thunderstorms  Fog  Heavy snow  Heavy precipitations  Wind > 20 kt
SIGMETs :     Misc.  Thunderstorms  Icing  Turbulence  Mountain Waves  Volcanic Ashes







- Airport Elevation : 1470 ft
- IATA code : KLU


LOWK - Klagenfurt

CURRENT METAR :
  • 200520Z 28003KT 260V320 9999 FEW003 BKN120 07/06 Q1015 NOSIG

EXPIRED METARs :
  • 200450Z 30003KT 9999 FEW010 BKN120 07/06 Q1015 NOSIG
  • 200420Z VRB02KT 9999 FEW010 BKN120 07/06 Q1015 NOSIG
  • 200350Z 30003KT 8000 FEW007 BKN110 07/06 Q1015 NOSIG
  • 200320Z AUTO 30002KT 9999 FEW100 BKN110 07/06 Q1015
  • 200250Z AUTO VRB02KT 9999 FEW003 BKN100 07/07 Q1015

TAF TAF LOWK
Valid from the 20 at 06:00 until the 21 at 06:00 UTC


200515Z 2006/2106 32004KT 9999 SCT050 BKN100 TX14/2012Z TN06/2106Z
TEMPO 2009/2017 36008G18KT SCT050 SCT100
PROB30
TEMPO 2102/2106 BKN005
No reported NOTAMs for that airfield.



MET'MAP, your aeronautical weather chart ! - Copyright ORBIFLY December 2007 - Disclaimer

ORBIFLY MET'MAP TEAM :

Programming & Development : Alexandra Zaïnal
Concept & Development : Baudouin d'Aumeries
Co-Development & Prog : Marc-Olivier Méhu
Technical & hardware support : Manuel Goepfert

Contact : metmap@orbifly.com




SOURCES & CREDITS :

   NOAA